sensor_id;sensor_type;location;lat;lon;timestamp;P1;P2;P0
71872;PMS5003;59745;52.924;-2.388;2022-07-09T00:02:59;7;7;
71872;PMS5003;59745;52.924;-2.388;2022-07-09T00:05:23;6;6;
71872;PMS5003;59745;52.924;-2.388;2022-07-09T00:07:48;7;7;
71872;PMS5003;59745;52.924;-2.388;2022-07-09T00:10:13;7;7;
71872;PMS5003;59745;52.924;-2.388;2022-07-09T00:12:39;6;3;
71872;PMS5003;59745;52.924;-2.388;2022-07-09T00:15:05;5;5;
71872;PMS5003;59745;52.924;-2.388;2022-07-09T00:17:29;6;6;
71872;PMS5003;59745;52.924;-2.388;2022-07-09T00:19:54;5;5;
71872;PMS5003;59745;52.924;-2.388;2022-07-09T00:22:19;10;9;
71872;PMS5003;59745;52.924;-2.388;2022-07-09T00:24:44;5;5;
71872;PMS5003;59745;52.924;-2.388;2022-07-09T00:27:10;8;8;
71872;PMS5003;59745;52.924;-2.388;2022-07-09T00:29:35;7;6;
71872;PMS5003;59745;52.924;-2.388;2022-07-09T00:32:00;7;5;
71872;PMS5003;59745;52.924;-2.388;2022-07-09T00:34:25;5;4;
71872;PMS5003;59745;52.924;-2.388;2022-07-09T00:36:50;5;5;
71872;PMS5003;59745;52.924;-2.388;2022-07-09T00:39:15;7;7;
71872;PMS5003;59745;52.924;-2.388;2022-07-09T00:41:40;8;7;
71872;PMS5003;59745;52.924;-2.388;2022-07-09T00:44:05;7;6;
71872;PMS5003;59745;52.924;-2.388;2022-07-09T00:46:30;7;6;
71872;PMS5003;59745;52.924;-2.388;2022-07-09T00:48:55;7;7;
71872;PMS5003;59745;52.924;-2.388;2022-07-09T00:51:20;6;5;
71872;PMS5003;59745;52.924;-2.388;2022-07-09T00:53:46;6;6;
71872;PMS5003;59745;52.924;-2.388;2022-07-09T00:56:11;8;7;
71872;PMS5003;59745;52.924;-2.388;2022-07-09T00:58:36;7;7;
71872;PMS5003;59745;52.924;-2.388;2022-07-09T01:01:01;8;7;
71872;PMS5003;59745;52.924;-2.388;2022-07-09T01:03:26;6;5;
71872;PMS5003;59745;52.924;-2.388;2022-07-09T01:05:51;6;6;
71872;PMS5003;59745;52.924;-2.388;2022-07-09T01:08:16;9;7;
71872;PMS5003;59745;52.924;-2.388;2022-07-09T01:10:42;5;5;
71872;PMS5003;59745;52.924;-2.388;2022-07-09T01:13:06;7;7;
71872;PMS5003;59745;52.924;-2.388;2022-07-09T01:15:31;8;8;
71872;PMS5003;59745;52.924;-2.388;2022-07-09T01:17:56;7;7;
71872;PMS5003;59745;52.924;-2.388;2022-07-09T01:20:22;10;9;
71872;PMS5003;59745;52.924;-2.388;2022-07-09T01:22:47;6;6;
71872;PMS5003;59745;52.924;-2.388;2022-07-09T01:25:12;6;6;
71872;PMS5003;59745;52.924;-2.388;2022-07-09T01:27:37;9;6;
71872;PMS5003;59745;52.924;-2.388;2022-07-09T01:30:03;9;8;
71872;PMS5003;59745;52.924;-2.388;2022-07-09T01:32:28;8;8;
71872;PMS5003;59745;52.924;-2.388;2022-07-09T01:34:53;7;7;
71872;PMS5003;59745;52.924;-2.388;2022-07-09T01:37:18;9;6;
71872;PMS5003;59745;52.924;-2.388;2022-07-09T01:39:43;10;10;
71872;PMS5003;59745;52.924;-2.388;2022-07-09T01:42:08;8;7;
71872;PMS5003;59745;52.924;-2.388;2022-07-09T01:44:34;7;7;
71872;PMS5003;59745;52.924;-2.388;2022-07-09T01:46:59;9;9;
71872;PMS5003;59745;52.924;-2.388;2022-07-09T01:49:24;8;7;
71872;PMS5003;59745;52.924;-2.388;2022-07-09T01:51:49;8;7;
71872;PMS5003;59745;52.924;-2.388;2022-07-09T01:54:14;9;9;
71872;PMS5003;59745;52.924;-2.388;2022-07-09T01:56:39;9;8;
71872;PMS5003;59745;52.924;-2.388;2022-07-09T01:59:04;8;6;
71872;PMS5003;59745;52.924;-2.388;2022-07-09T02:01:29;8;7;
71872;PMS5003;59745;52.924;-2.388;2022-07-09T02:03:55;6;6;
71872;PMS5003;59745;52.924;-2.388;2022-07-09T02:06:20;12;10;
71872;PMS5003;59745;52.924;-2.388;2022-07-09T02:08:45;10;10;
71872;PMS5003;59745;52.924;-2.388;2022-07-09T02:11:10;9;8;
71872;PMS5003;59745;52.924;-2.388;2022-07-09T02:13:36;11;10;
71872;PMS5003;59745;52.924;-2.388;2022-07-09T02:16:01;10;10;
71872;PMS5003;59745;52.924;-2.388;2022-07-09T02:18:26;9;9;
71872;PMS5003;59745;52.924;-2.388;2022-07-09T02:20:51;9;9;
71872;PMS5003;59745;52.924;-2.388;2022-07-09T02:23:17;8;8;
71872;PMS5003;59745;52.924;-2.388;2022-07-09T02:25:42;11;10;
71872;PMS5003;59745;52.924;-2.388;2022-07-09T02:28:07;8;8;
71872;PMS5003;59745;52.924;-2.388;2022-07-09T02:30:32;9;8;
71872;PMS5003;59745;52.924;-2.388;2022-07-09T02:32:57;11;11;
71872;PMS5003;59745;52.924;-2.388;2022-07-09T02:35:23;8;7;
71872;PMS5003;59745;52.924;-2.388;2022-07-09T02:37:48;9;9;
71872;PMS5003;59745;52.924;-2.388;2022-07-09T02:40:13;11;10;
71872;PMS5003;59745;52.924;-2.388;2022-07-09T02:42:38;11;11;
71872;PMS5003;59745;52.924;-2.388;2022-07-09T02:45:03;12;10;
71872;PMS5003;59745;52.924;-2.388;2022-07-09T02:47:28;7;7;
71872;PMS5003;59745;52.924;-2.388;2022-07-09T02:49:54;14;12;
71872;PMS5003;59745;52.924;-2.388;2022-07-09T02:52:19;11;11;
71872;PMS5003;59745;52.924;-2.388;2022-07-09T02:54:44;9;9;
71872;PMS5003;59745;52.924;-2.388;2022-07-09T02:57:10;12;12;
71872;PMS5003;59745;52.924;-2.388;2022-07-09T02:59:35;13;13;
71872;PMS5003;59745;52.924;-2.388;2022-07-09T03:02:00;16;16;
71872;PMS5003;59745;52.924;-2.388;2022-07-09T03:04:26;11;10;
71872;PMS5003;59745;52.924;-2.388;2022-07-09T03:06:51;9;8;
71872;PMS5003;59745;52.924;-2.388;2022-07-09T03:09:16;11;11;
71872;PMS5003;59745;52.924;-2.388;2022-07-09T03:11:41;11;11;
71872;PMS5003;59745;52.924;-2.388;2022-07-09T03:14:06;12;11;
71872;PMS5003;59745;52.924;-2.388;2022-07-09T03:16:31;9;9;
71872;PMS5003;59745;52.924;-2.388;2022-07-09T03:18:57;11;11;
71872;PMS5003;59745;52.924;-2.388;2022-07-09T03:21:22;12;12;
71872;PMS5003;59745;52.924;-2.388;2022-07-09T03:23:48;12;12;
71872;PMS5003;59745;52.924;-2.388;2022-07-09T03:26:12;10;10;
71872;PMS5003;59745;52.924;-2.388;2022-07-09T03:28:38;10;10;
71872;PMS5003;59745;52.924;-2.388;2022-07-09T03:31:04;12;11;
71872;PMS5003;59745;52.924;-2.388;2022-07-09T03:33:29;11;11;
71872;PMS5003;59745;52.924;-2.388;2022-07-09T03:35:55;12;12;
71872;PMS5003;59745;52.924;-2.388;2022-07-09T03:38:20;9;9;
71872;PMS5003;59745;52.924;-2.388;2022-07-09T03:40:45;10;10;
71872;PMS5003;59745;52.924;-2.388;2022-07-09T03:43:10;13;12;
71872;PMS5003;59745;52.924;-2.388;2022-07-09T03:45:35;12;11;
71872;PMS5003;59745;52.924;-2.388;2022-07-09T03:48:01;8;8;
71872;PMS5003;59745;52.924;-2.388;2022-07-09T03:50:27;14;12;
71872;PMS5003;59745;52.924;-2.388;2022-07-09T03:52:51;11;11;
71872;PMS5003;59745;52.924;-2.388;2022-07-09T03:55:17;11;11;
71872;PMS5003;59745;52.924;-2.388;2022-07-09T03:57:42;10;9;
71872;PMS5003;59745;52.924;-2.388;2022-07-09T04:00:13;15;14;
71872;PMS5003;59745;52.924;-2.388;2022-07-09T04:02:32;14;13;
71872;PMS5003;59745;52.924;-2.388;2022-07-09T04:04:57;8;8;
71872;PMS5003;59745;52.924;-2.388;2022-07-09T04:07:22;16;14;
71872;PMS5003;59745;52.924;-2.388;2022-07-09T04:09:47;12;10;
71872;PMS5003;59745;52.924;-2.388;2022-07-09T04:12:12;13;12;
71872;PMS5003;59745;52.924;-2.388;2022-07-09T04:14:37;17;15;
71872;PMS5003;59745;52.924;-2.388;2022-07-09T04:17:03;13;13;
71872;PMS5003;59745;52.924;-2.388;2022-07-09T04:19:28;12;12;
71872;PMS5003;59745;52.924;-2.388;2022-07-09T04:21:53;12;11;
71872;PMS5003;59745;52.924;-2.388;2022-07-09T04:24:19;13;11;
71872;PMS5003;59745;52.924;-2.388;2022-07-09T04:26:44;12;12;
71872;PMS5003;59745;52.924;-2.388;2022-07-09T04:29:09;12;10;
71872;PMS5003;59745;52.924;-2.388;2022-07-09T04:31:34;11;11;
71872;PMS5003;59745;52.924;-2.388;2022-07-09T04:33:59;12;11;
71872;PMS5003;59745;52.924;-2.388;2022-07-09T04:36:25;11;10;
71872;PMS5003;59745;52.924;-2.388;2022-07-09T04:38:50;14;13;
71872;PMS5003;59745;52.924;-2.388;2022-07-09T04:41:16;18;17;
71872;PMS5003;59745;52.924;-2.388;2022-07-09T04:43:41;13;13;
71872;PMS5003;59745;52.924;-2.388;2022-07-09T04:46:07;15;13;
71872;PMS5003;59745;52.924;-2.388;2022-07-09T04:48:33;15;15;
71872;PMS5003;59745;52.924;-2.388;2022-07-09T04:50:57;13;11;
71872;PMS5003;59745;52.924;-2.388;2022-07-09T04:53:23;12;11;
71872;PMS5003;59745;52.924;-2.388;2022-07-09T04:55:48;16;14;
71872;PMS5003;59745;52.924;-2.388;2022-07-09T04:58:13;17;14;
71872;PMS5003;59745;52.924;-2.388;2022-07-09T05:00:39;14;14;
71872;PMS5003;59745;52.924;-2.388;2022-07-09T05:03:04;9;9;
71872;PMS5003;59745;52.924;-2.388;2022-07-09T05:05:29;11;11;
71872;PMS5003;59745;52.924;-2.388;2022-07-09T05:07:54;16;15;
71872;PMS5003;59745;52.924;-2.388;2022-07-09T05:10:20;16;15;
71872;PMS5003;59745;52.924;-2.388;2022-07-09T05:12:45;15;13;
71872;PMS5003;59745;52.924;-2.388;2022-07-09T05:15:10;15;15;
71872;PMS5003;59745;52.924;-2.388;2022-07-09T05:17:35;17;14;
71872;PMS5003;59745;52.924;-2.388;2022-07-09T05:20:01;12;12;
71872;PMS5003;59745;52.924;-2.388;2022-07-09T05:22:26;18;16;
71872;PMS5003;59745;52.924;-2.388;2022-07-09T05:24:51;13;13;
71872;PMS5003;59745;52.924;-2.388;2022-07-09T05:27:17;11;11;
71872;PMS5003;59745;52.924;-2.388;2022-07-09T05:29:42;16;16;
71872;PMS5003;59745;52.924;-2.388;2022-07-09T05:32:08;14;12;
71872;PMS5003;59745;52.924;-2.388;2022-07-09T05:34:33;13;11;
71872;PMS5003;59745;52.924;-2.388;2022-07-09T05:36:58;11;11;
71872;PMS5003;59745;52.924;-2.388;2022-07-09T05:39:23;10;10;
71872;PMS5003;59745;52.924;-2.388;2022-07-09T05:41:48;10;10;
71872;PMS5003;59745;52.924;-2.388;2022-07-09T05:44:13;9;8;
71872;PMS5003;59745;52.924;-2.388;2022-07-09T05:46:38;7;6;
71872;PMS5003;59745;52.924;-2.388;2022-07-09T05:49:03;4;4;
71872;PMS5003;59745;52.924;-2.388;2022-07-09T05:51:29;5;5;
71872;PMS5003;59745;52.924;-2.388;2022-07-09T05:53:54;5;5;
71872;PMS5003;59745;52.924;-2.388;2022-07-09T05:56:19;4;4;
71872;PMS5003;59745;52.924;-2.388;2022-07-09T05:58:44;5;4;
71872;PMS5003;59745;52.924;-2.388;2022-07-09T06:01:09;3;3;
71872;PMS5003;59745;52.924;-2.388;2022-07-09T06:03:34;4;4;
71872;PMS5003;59745;52.924;-2.388;2022-07-09T06:05:59;4;4;
71872;PMS5003;59745;52.924;-2.388;2022-07-09T06:08:24;4;3;
71872;PMS5003;59745;52.924;-2.388;2022-07-09T06:10:49;3;3;
71872;PMS5003;59745;52.924;-2.388;2022-07-09T06:13:14;1;1;
71872;PMS5003;59745;52.924;-2.388;2022-07-09T06:15:40;1;1;
71872;PMS5003;59745;52.924;-2.388;2022-07-09T06:18:05;0;0;
71872;PMS5003;59745;52.924;-2.388;2022-07-09T06:20:30;2;2;
71872;PMS5003;59745;52.924;-2.388;2022-07-09T06:22:55;0;0;
71872;PMS5003;59745;52.924;-2.388;2022-07-09T06:25:20;1;1;
71872;PMS5003;59745;52.924;-2.388;2022-07-09T06:27:45;2;2;
71872;PMS5003;59745;52.924;-2.388;2022-07-09T06:30:10;3;3;
71872;PMS5003;59745;52.924;-2.388;2022-07-09T06:32:35;3;3;
71872;PMS5003;59745;52.924;-2.388;2022-07-09T06:35:00;2;2;
71872;PMS5003;59745;52.924;-2.388;2022-07-09T06:37:26;2;2;
71872;PMS5003;59745;52.924;-2.388;2022-07-09T06:39:51;1;1;
71872;PMS5003;59745;52.924;-2.388;2022-07-09T06:42:17;5;4;
71872;PMS5003;59745;52.924;-2.388;2022-07-09T06:44:41;4;4;
71872;PMS5003;59745;52.924;-2.388;2022-07-09T06:47:06;3;3;
71872;PMS5003;59745;52.924;-2.388;2022-07-09T06:49:31;2;2;
71872;PMS5003;59745;52.924;-2.388;2022-07-09T06:51:56;4;4;
71872;PMS5003;59745;52.924;-2.388;2022-07-09T06:54:21;4;4;
71872;PMS5003;59745;52.924;-2.388;2022-07-09T06:56:46;3;2;
71872;PMS5003;59745;52.924;-2.388;2022-07-09T06:59:11;4;4;
71872;PMS5003;59745;52.924;-2.388;2022-07-09T07:01:36;4;3;
71872;PMS5003;59745;52.924;-2.388;2022-07-09T07:04:02;3;3;
71872;PMS5003;59745;52.924;-2.388;2022-07-09T07:06:27;3;2;
71872;PMS5003;59745;52.924;-2.388;2022-07-09T07:08:52;3;3;
71872;PMS5003;59745;52.924;-2.388;2022-07-09T07:11:17;4;3;
71872;PMS5003;59745;52.924;-2.388;2022-07-09T07:13:42;5;5;
71872;PMS5003;59745;52.924;-2.388;2022-07-09T07:16:07;8;7;
71872;PMS5003;59745;52.924;-2.388;2022-07-09T07:18:32;5;5;
71872;PMS5003;59745;52.924;-2.388;2022-07-09T07:20:57;5;4;
71872;PMS5003;59745;52.924;-2.388;2022-07-09T07:23:22;5;5;
71872;PMS5003;59745;52.924;-2.388;2022-07-09T07:25:47;4;4;
71872;PMS5003;59745;52.924;-2.388;2022-07-09T07:28:12;5;5;
71872;PMS5003;59745;52.924;-2.388;2022-07-09T07:30:37;3;3;
71872;PMS5003;59745;52.924;-2.388;2022-07-09T07:33:02;4;4;
71872;PMS5003;59745;52.924;-2.388;2022-07-09T07:35:27;4;4;
71872;PMS5003;59745;52.924;-2.388;2022-07-09T07:37:52;4;4;
71872;PMS5003;59745;52.924;-2.388;2022-07-09T07:40:18;4;4;
71872;PMS5003;59745;52.924;-2.388;2022-07-09T07:42:43;4;4;
71872;PMS5003;59745;52.924;-2.388;2022-07-09T07:45:08;4;4;
71872;PMS5003;59745;52.924;-2.388;2022-07-09T07:47:33;7;6;
71872;PMS5003;59745;52.924;-2.388;2022-07-09T07:49:58;8;8;
71872;PMS5003;59745;52.924;-2.388;2022-07-09T07:52:23;10;9;
71872;PMS5003;59745;52.924;-2.388;2022-07-09T07:54:48;6;6;
71872;PMS5003;59745;52.924;-2.388;2022-07-09T07:57:13;6;6;
71872;PMS5003;59745;52.924;-2.388;2022-07-09T07:59:38;5;5;
71872;PMS5003;59745;52.924;-2.388;2022-07-09T08:02:03;9;8;
71872;PMS5003;59745;52.924;-2.388;2022-07-09T08:04:28;8;7;
71872;PMS5003;59745;52.924;-2.388;2022-07-09T08:06:53;9;8;
71872;PMS5003;59745;52.924;-2.388;2022-07-09T08:09:18;10;10;
71872;PMS5003;59745;52.924;-2.388;2022-07-09T08:11:43;10;10;
71872;PMS5003;59745;52.924;-2.388;2022-07-09T08:14:08;10;9;
71872;PMS5003;59745;52.924;-2.388;2022-07-09T08:16:33;8;8;
71872;PMS5003;59745;52.924;-2.388;2022-07-09T08:18:58;6;6;
71872;PMS5003;59745;52.924;-2.388;2022-07-09T08:21:23;7;7;
71872;PMS5003;59745;52.924;-2.388;2022-07-09T08:23:48;9;9;
71872;PMS5003;59745;52.924;-2.388;2022-07-09T08:26:13;6;6;
71872;PMS5003;59745;52.924;-2.388;2022-07-09T08:28:39;10;9;
71872;PMS5003;59745;52.924;-2.388;2022-07-09T08:31:04;11;9;
71872;PMS5003;59745;52.924;-2.388;2022-07-09T08:33:29;12;10;
71872;PMS5003;59745;52.924;-2.388;2022-07-09T08:35:54;14;14;
71872;PMS5003;59745;52.924;-2.388;2022-07-09T08:38:19;16;15;
71872;PMS5003;59745;52.924;-2.388;2022-07-09T08:40:44;13;13;
71872;PMS5003;59745;52.924;-2.388;2022-07-09T08:45:34;14;14;
71872;PMS5003;59745;52.924;-2.388;2022-07-09T08:48:00;8;8;
71872;PMS5003;59745;52.924;-2.388;2022-07-09T08:50:25;7;7;
71872;PMS5003;59745;52.924;-2.388;2022-07-09T08:52:50;9;9;
71872;PMS5003;59745;52.924;-2.388;2022-07-09T08:55:15;14;14;
71872;PMS5003;59745;52.924;-2.388;2022-07-09T08:57:40;14;14;
71872;PMS5003;59745;52.924;-2.388;2022-07-09T09:00:05;14;13;
71872;PMS5003;59745;52.924;-2.388;2022-07-09T09:02:33;15;14;
71872;PMS5003;59745;52.924;-2.388;2022-07-09T09:04:55;14;14;
71872;PMS5003;59745;52.924;-2.388;2022-07-09T09:07:20;13;12;
71872;PMS5003;59745;52.924;-2.388;2022-07-09T09:09:45;12;12;
71872;PMS5003;59745;52.924;-2.388;2022-07-09T09:12:10;13;13;
71872;PMS5003;59745;52.924;-2.388;2022-07-09T09:14:35;12;12;
71872;PMS5003;59745;52.924;-2.388;2022-07-09T09:17:03;11;11;
71872;PMS5003;59745;52.924;-2.388;2022-07-09T09:19:26;12;11;
71872;PMS5003;59745;52.924;-2.388;2022-07-09T09:21:51;14;14;
71872;PMS5003;59745;52.924;-2.388;2022-07-09T09:24:15;14;14;
71872;PMS5003;59745;52.924;-2.388;2022-07-09T09:26:40;14;14;
71872;PMS5003;59745;52.924;-2.388;2022-07-09T09:29:05;10;10;
71872;PMS5003;59745;52.924;-2.388;2022-07-09T09:31:31;10;10;
71872;PMS5003;59745;52.924;-2.388;2022-07-09T09:33:56;8;8;
71872;PMS5003;59745;52.924;-2.388;2022-07-09T09:36:27;12;11;
71872;PMS5003;59745;52.924;-2.388;2022-07-09T09:38:45;11;11;
71872;PMS5003;59745;52.924;-2.388;2022-07-09T09:41:10;14;14;
71872;PMS5003;59745;52.924;-2.388;2022-07-09T09:43:35;11;11;
71872;PMS5003;59745;52.924;-2.388;2022-07-09T09:46:00;9;9;
71872;PMS5003;59745;52.924;-2.388;2022-07-09T09:48:25;7;7;
71872;PMS5003;59745;52.924;-2.388;2022-07-09T09:50:51;9;9;
71872;PMS5003;59745;52.924;-2.388;2022-07-09T09:53:15;9;9;
71872;PMS5003;59745;52.924;-2.388;2022-07-09T09:55:40;6;6;
71872;PMS5003;59745;52.924;-2.388;2022-07-09T09:58:06;8;8;
71872;PMS5003;59745;52.924;-2.388;2022-07-09T10:00:32;12;12;
71872;PMS5003;59745;52.924;-2.388;2022-07-09T10:02:58;11;10;
71872;PMS5003;59745;52.924;-2.388;2022-07-09T10:05:24;8;8;
71872;PMS5003;59745;52.924;-2.388;2022-07-09T10:07:49;9;9;
71872;PMS5003;59745;52.924;-2.388;2022-07-09T10:10:17;6;6;
71872;PMS5003;59745;52.924;-2.388;2022-07-09T10:12:41;6;6;
71872;PMS5003;59745;52.924;-2.388;2022-07-09T10:15:08;5;5;
71872;PMS5003;59745;52.924;-2.388;2022-07-09T10:17:39;7;7;
71872;PMS5003;59745;52.924;-2.388;2022-07-09T10:20:01;6;6;
71872;PMS5003;59745;52.924;-2.388;2022-07-09T10:24:51;9;9;
71872;PMS5003;59745;52.924;-2.388;2022-07-09T10:27:16;9;9;
71872;PMS5003;59745;52.924;-2.388;2022-07-09T10:29:52;13;12;
71872;PMS5003;59745;52.924;-2.388;2022-07-09T10:32:08;9;9;
71872;PMS5003;59745;52.924;-2.388;2022-07-09T10:36:58;10;10;
71872;PMS5003;59745;52.924;-2.388;2022-07-09T10:39:23;8;8;
71872;PMS5003;59745;52.924;-2.388;2022-07-09T10:46:41;8;8;
71872;PMS5003;59745;52.924;-2.388;2022-07-09T10:49:06;7;6;
71872;PMS5003;59745;52.924;-2.388;2022-07-09T10:51:31;6;6;
71872;PMS5003;59745;52.924;-2.388;2022-07-09T10:53:57;11;9;
71872;PMS5003;59745;52.924;-2.388;2022-07-09T10:56:23;11;11;
71872;PMS5003;59745;52.924;-2.388;2022-07-09T10:58:49;7;7;
71872;PMS5003;59745;52.924;-2.388;2022-07-09T11:01:20;7;7;
71872;PMS5003;59745;52.924;-2.388;2022-07-09T11:03:40;8;7;
71872;PMS5003;59745;52.924;-2.388;2022-07-09T11:06:08;6;6;
71872;PMS5003;59745;52.924;-2.388;2022-07-09T11:08:31;6;6;
71872;PMS5003;59745;52.924;-2.388;2022-07-09T11:10:57;3;3;
71872;PMS5003;59745;52.924;-2.388;2022-07-09T11:13:23;6;6;
71872;PMS5003;59745;52.924;-2.388;2022-07-09T11:15:49;3;2;
71872;PMS5003;59745;52.924;-2.388;2022-07-09T11:18:15;6;6;
71872;PMS5003;59745;52.924;-2.388;2022-07-09T11:20:41;4;4;
71872;PMS5003;59745;52.924;-2.388;2022-07-09T11:23:08;6;5;
71872;PMS5003;59745;52.924;-2.388;2022-07-09T11:25:32;5;5;
71872;PMS5003;59745;52.924;-2.388;2022-07-09T11:27:59;3;3;
71872;PMS5003;59745;52.924;-2.388;2022-07-09T11:30:24;3;3;
71872;PMS5003;59745;52.924;-2.388;2022-07-09T11:32:50;3;3;
71872;PMS5003;59745;52.924;-2.388;2022-07-09T11:35:25;3;3;
71872;PMS5003;59745;52.924;-2.388;2022-07-09T11:37:44;3;3;
71872;PMS5003;59745;52.924;-2.388;2022-07-09T11:40:08;4;3;
71872;PMS5003;59745;52.924;-2.388;2022-07-09T11:44:59;3;3;
71872;PMS5003;59745;52.924;-2.388;2022-07-09T11:47:31;4;2;
71872;PMS5003;59745;52.924;-2.388;2022-07-09T11:49:51;2;2;
71872;PMS5003;59745;52.924;-2.388;2022-07-09T11:52:17;4;4;
71872;PMS5003;59745;52.924;-2.388;2022-07-09T11:59:34;4;4;
71872;PMS5003;59745;52.924;-2.388;2022-07-09T12:02:00;7;7;
71872;PMS5003;59745;52.924;-2.388;2022-07-09T12:04:27;5;4;
71872;PMS5003;59745;52.924;-2.388;2022-07-09T12:06:51;6;4;
71872;PMS5003;59745;52.924;-2.388;2022-07-09T12:11:43;5;5;
71872;PMS5003;59745;52.924;-2.388;2022-07-09T12:14:09;6;6;
71872;PMS5003;59745;52.924;-2.388;2022-07-09T12:16:35;5;5;
71872;PMS5003;59745;52.924;-2.388;2022-07-09T12:19:00;5;5;
71872;PMS5003;59745;52.924;-2.388;2022-07-09T12:21:26;6;6;
71872;PMS5003;59745;52.924;-2.388;2022-07-09T12:23:52;6;6;
71872;PMS5003;59745;52.924;-2.388;2022-07-09T12:26:17;8;7;
71872;PMS5003;59745;52.924;-2.388;2022-07-09T12:28:42;5;5;
71872;PMS5003;59745;52.924;-2.388;2022-07-09T12:31:07;4;4;
71872;PMS5003;59745;52.924;-2.388;2022-07-09T12:33:32;5;4;
71872;PMS5003;59745;52.924;-2.388;2022-07-09T12:35:58;3;3;
71872;PMS5003;59745;52.924;-2.388;2022-07-09T12:38:24;5;5;
71872;PMS5003;59745;52.924;-2.388;2022-07-09T12:40:50;4;4;
71872;PMS5003;59745;52.924;-2.388;2022-07-09T12:43:16;6;6;
71872;PMS5003;59745;52.924;-2.388;2022-07-09T12:45:41;6;6;
71872;PMS5003;59745;52.924;-2.388;2022-07-09T12:48:07;5;5;
71872;PMS5003;59745;52.924;-2.388;2022-07-09T12:50:33;6;6;
71872;PMS5003;59745;52.924;-2.388;2022-07-09T12:52:59;4;4;
71872;PMS5003;59745;52.924;-2.388;2022-07-09T12:55:25;7;7;
71872;PMS5003;59745;52.924;-2.388;2022-07-09T12:57:51;7;7;
71872;PMS5003;59745;52.924;-2.388;2022-07-09T13:00:17;6;6;
71872;PMS5003;59745;52.924;-2.388;2022-07-09T13:02:42;7;6;
71872;PMS5003;59745;52.924;-2.388;2022-07-09T13:05:08;4;3;
71872;PMS5003;59745;52.924;-2.388;2022-07-09T13:07:34;6;6;
71872;PMS5003;59745;52.924;-2.388;2022-07-09T13:10:00;5;4;
71872;PMS5003;59745;52.924;-2.388;2022-07-09T13:12:26;2;2;
71872;PMS5003;59745;52.924;-2.388;2022-07-09T13:14:51;2;2;
71872;PMS5003;59745;52.924;-2.388;2022-07-09T13:17:17;2;2;
71872;PMS5003;59745;52.924;-2.388;2022-07-09T13:19:43;3;3;
71872;PMS5003;59745;52.924;-2.388;2022-07-09T13:22:09;2;2;
71872;PMS5003;59745;52.924;-2.388;2022-07-09T13:24:35;3;3;
71872;PMS5003;59745;52.924;-2.388;2022-07-09T13:27:01;2;2;
71872;PMS5003;59745;52.924;-2.388;2022-07-09T13:29:26;2;2;
71872;PMS5003;59745;52.924;-2.388;2022-07-09T13:31:52;2;2;
71872;PMS5003;59745;52.924;-2.388;2022-07-09T13:34:18;3;3;
71872;PMS5003;59745;52.924;-2.388;2022-07-09T13:36:44;2;2;
71872;PMS5003;59745;52.924;-2.388;2022-07-09T13:39:10;3;3;
71872;PMS5003;59745;52.924;-2.388;2022-07-09T13:41:36;2;2;
71872;PMS5003;59745;52.924;-2.388;2022-07-09T13:44:01;3;2;
71872;PMS5003;59745;52.924;-2.388;2022-07-09T13:46:27;3;2;
71872;PMS5003;59745;52.924;-2.388;2022-07-09T13:48:53;6;5;
71872;PMS5003;59745;52.924;-2.388;2022-07-09T13:51:19;4;3;
71872;PMS5003;59745;52.924;-2.388;2022-07-09T13:53:45;3;3;
71872;PMS5003;59745;52.924;-2.388;2022-07-09T13:56:11;5;5;
71872;PMS5003;59745;52.924;-2.388;2022-07-09T13:58:36;2;2;
71872;PMS5003;59745;52.924;-2.388;2022-07-09T14:01:02;3;3;
71872;PMS5003;59745;52.924;-2.388;2022-07-09T14:03:28;3;3;
71872;PMS5003;59745;52.924;-2.388;2022-07-09T14:05:54;4;4;
71872;PMS5003;59745;52.924;-2.388;2022-07-09T14:08:20;5;4;
71872;PMS5003;59745;52.924;-2.388;2022-07-09T14:10:46;3;3;
71872;PMS5003;59745;52.924;-2.388;2022-07-09T14:13:12;4;4;
71872;PMS5003;59745;52.924;-2.388;2022-07-09T14:15:37;2;2;
71872;PMS5003;59745;52.924;-2.388;2022-07-09T14:18:03;3;3;
71872;PMS5003;59745;52.924;-2.388;2022-07-09T14:20:29;3;3;
71872;PMS5003;59745;52.924;-2.388;2022-07-09T14:22:55;4;4;
71872;PMS5003;59745;52.924;-2.388;2022-07-09T14:25:21;4;4;
71872;PMS5003;59745;52.924;-2.388;2022-07-09T14:27:47;6;5;
71872;PMS5003;59745;52.924;-2.388;2022-07-09T14:30:12;5;5;
71872;PMS5003;59745;52.924;-2.388;2022-07-09T14:32:38;3;3;
71872;PMS5003;59745;52.924;-2.388;2022-07-09T14:35:04;3;3;
71872;PMS5003;59745;52.924;-2.388;2022-07-09T14:37:30;3;3;
71872;PMS5003;59745;52.924;-2.388;2022-07-09T14:39:56;6;6;
71872;PMS5003;59745;52.924;-2.388;2022-07-09T14:42:22;4;4;
71872;PMS5003;59745;52.924;-2.388;2022-07-09T14:44:48;3;3;
71872;PMS5003;59745;52.924;-2.388;2022-07-09T14:47:13;3;3;
71872;PMS5003;59745;52.924;-2.388;2022-07-09T14:49:38;7;5;
71872;PMS5003;59745;52.924;-2.388;2022-07-09T14:52:12;4;4;
71872;PMS5003;59745;52.924;-2.388;2022-07-09T14:54:30;6;6;
71872;PMS5003;59745;52.924;-2.388;2022-07-09T14:56:56;5;4;
71872;PMS5003;59745;52.924;-2.388;2022-07-09T14:59:22;4;4;
71872;PMS5003;59745;52.924;-2.388;2022-07-09T15:01:48;3;3;
71872;PMS5003;59745;52.924;-2.388;2022-07-09T15:04:14;6;4;
71872;PMS5003;59745;52.924;-2.388;2022-07-09T15:06:39;1;1;
71872;PMS5003;59745;52.924;-2.388;2022-07-09T15:09:05;3;3;
71872;PMS5003;59745;52.924;-2.388;2022-07-09T15:11:31;4;4;
71872;PMS5003;59745;52.924;-2.388;2022-07-09T15:13:57;4;4;
71872;PMS5003;59745;52.924;-2.388;2022-07-09T15:16:23;4;4;
71872;PMS5003;59745;52.924;-2.388;2022-07-09T15:18:48;4;4;
71872;PMS5003;59745;52.924;-2.388;2022-07-09T15:21:14;5;5;
71872;PMS5003;59745;52.924;-2.388;2022-07-09T15:23:39;6;6;
71872;PMS5003;59745;52.924;-2.388;2022-07-09T15:26:04;4;4;
71872;PMS5003;59745;52.924;-2.388;2022-07-09T15:28:29;4;2;
71872;PMS5003;59745;52.924;-2.388;2022-07-09T15:30:54;6;5;
71872;PMS5003;59745;52.924;-2.388;2022-07-09T15:33:19;3;3;
71872;PMS5003;59745;52.924;-2.388;2022-07-09T15:35:44;1;1;
71872;PMS5003;59745;52.924;-2.388;2022-07-09T15:38:09;2;2;
71872;PMS5003;59745;52.924;-2.388;2022-07-09T15:40:34;3;1;
71872;PMS5003;59745;52.924;-2.388;2022-07-09T15:42:59;3;3;
71872;PMS5003;59745;52.924;-2.388;2022-07-09T15:45:24;3;3;
71872;PMS5003;59745;52.924;-2.388;2022-07-09T15:47:49;3;3;
71872;PMS5003;59745;52.924;-2.388;2022-07-09T15:50:14;4;4;
71872;PMS5003;59745;52.924;-2.388;2022-07-09T15:52:39;2;2;
71872;PMS5003;59745;52.924;-2.388;2022-07-09T15:55:04;2;2;
71872;PMS5003;59745;52.924;-2.388;2022-07-09T15:57:29;5;4;
71872;PMS5003;59745;52.924;-2.388;2022-07-09T15:59:54;4;3;
71872;PMS5003;59745;52.924;-2.388;2022-07-09T16:02:19;3;2;
71872;PMS5003;59745;52.924;-2.388;2022-07-09T16:04:44;3;3;
71872;PMS5003;59745;52.924;-2.388;2022-07-09T16:07:10;5;3;
71872;PMS5003;59745;52.924;-2.388;2022-07-09T16:09:35;3;3;
71872;PMS5003;59745;52.924;-2.388;2022-07-09T16:12:00;2;2;
71872;PMS5003;59745;52.924;-2.388;2022-07-09T16:14:25;3;3;
71872;PMS5003;59745;52.924;-2.388;2022-07-09T16:16:50;2;2;
71872;PMS5003;59745;52.924;-2.388;2022-07-09T16:19:15;3;2;
71872;PMS5003;59745;52.924;-2.388;2022-07-09T16:21:41;2;2;
71872;PMS5003;59745;52.924;-2.388;2022-07-09T16:24:06;3;3;
71872;PMS5003;59745;52.924;-2.388;2022-07-09T16:26:31;4;4;
71872;PMS5003;59745;52.924;-2.388;2022-07-09T16:28:56;3;3;
71872;PMS5003;59745;52.924;-2.388;2022-07-09T16:31:21;4;3;
71872;PMS5003;59745;52.924;-2.388;2022-07-09T16:33:46;3;3;
71872;PMS5003;59745;52.924;-2.388;2022-07-09T16:36:11;5;3;